Windcrest, Texas
Current Conditions -  °F | °C
As of 10:58 PM on Wednesday 22 Oct 2014 (Local Time) from KRND Reporting Station
Overcast Overcast  
Wind Chill: 71°   Ceiling: 18000
Heat Index: 71°   Visibility: 10mi
Dew Point: 57°   Wind: 6mph
Humidity: 60%   Direction: 100°E
Pressure: 30.09"   Gusts: NA
Location:  29.5172°N, 98.362°W
Report Text: KRND 230358Z AUTO 10005KT 10SM SCT140 OVC180 22/14 A3009 RMK AO2 SLP183 T02180138
Loading
Personal Weather Stations






























Interactive Weather Map
Tropical Storm Tracking
New forecast layout! Learn more

10-Day Weather Forecast

Advertisements
Track Severe Weather on mobile